createdAt,value
2017-02-08T00:00:03.032Z,73.6
2017-02-08T00:01:14.034Z,73.69
2017-02-08T00:02:23.974Z,73.41
2017-02-08T00:03:34.329Z,73.69
2017-02-08T00:04:45.068Z,73.41
2017-02-08T00:05:55.015Z,73.41
2017-02-08T00:07:04.983Z,73.6
2017-02-08T00:08:15.338Z,73.5
2017-02-08T00:09:24.890Z,73.69
2017-02-08T00:10:35.631Z,73.22
2017-02-08T00:11:46.377Z,73.88
2017-02-08T00:12:57.139Z,73.32
2017-02-08T00:14:07.891Z,73.22
2017-02-08T00:15:18.635Z,73.32
2017-02-08T00:16:29.393Z,73.79
2017-02-08T00:17:40.140Z,73.5
2017-02-08T00:18:50.495Z,73.13
2017-02-08T00:20:01.234Z,73.6
2017-02-08T00:21:11.981Z,73.5
2017-02-08T00:22:22.726Z,73.41
2017-02-08T00:23:33.471Z,73.69
2017-02-08T00:24:43.461Z,73.5
2017-02-08T00:25:53.811Z,73.32
2017-02-08T00:27:04.160Z,73.41
2017-02-08T00:28:14.898Z,73.6
2017-02-08T00:29:25.635Z,73.6
2017-02-08T00:30:35.601Z,73.6
2017-02-08T00:31:46.356Z,73.5
2017-02-08T00:32:57.362Z,73.5
2017-02-08T00:34:08.107Z,73.69
2017-02-08T00:35:18.451Z,73.6
2017-02-08T00:36:28.847Z,73.64
2017-02-08T00:37:38.795Z,73.83
2017-02-08T00:38:49.139Z,73.16
2017-02-08T00:39:59.479Z,73.73
2017-02-08T00:41:09.826Z,73.26
2017-02-08T00:42:20.561Z,73.45
2017-02-08T00:43:31.318Z,73.26
2017-02-08T00:44:41.676Z,73.26
2017-02-08T00:45:52.412Z,73.26
2017-02-08T00:47:02.765Z,73.73
2017-02-08T00:48:13.505Z,73.64
2017-02-08T00:49:23.887Z,73.54
2017-02-08T00:50:34.638Z,73.35
2017-02-08T00:51:45.381Z,73.35
2017-02-08T00:52:55.758Z,73.64
2017-02-08T00:54:06.529Z,73.35
2017-02-08T00:55:17.266Z,73.16
2017-02-08T00:56:27.209Z,73.45
2017-02-08T00:57:37.945Z,73.54
2017-02-08T00:58:48.692Z,73.16
2017-02-08T00:59:59.034Z,73.35
2017-02-08T01:01:09.774Z,73.26
2017-02-08T01:02:20.135Z,73.64
2017-02-08T01:03:30.885Z,73.64
2017-02-08T01:04:41.635Z,73.64
2017-02-08T01:05:51.992Z,73.73
2017-02-08T01:07:02.335Z,73.64
2017-02-08T01:08:12.303Z,73.73
2017-02-08T01:09:22.656Z,73.54
2017-02-08T01:10:33.450Z,73.64
2017-02-08T01:11:43.395Z,73.64
2017-02-08T01:12:53.724Z,73.54
2017-02-08T01:14:04.081Z,73.73
2017-02-08T01:15:14.836Z,73.73
2017-02-08T01:16:25.576Z,73.35
2017-02-08T01:17:36.316Z,73.45
2017-02-08T01:18:46.673Z,73.35
2017-02-08T01:19:57.399Z,73.45
2017-02-08T01:21:08.175Z,73.54
2017-02-08T01:22:18.913Z,73.73
2017-02-08T01:23:28.863Z,73.49
2017-02-08T01:24:39.206Z,73.73
2017-02-08T01:25:49.548Z,73.77
2017-02-08T01:26:59.892Z,73.58
2017-02-08T01:28:10.629Z,73.39
2017-02-08T01:29:20.981Z,73.39
2017-02-08T01:30:30.939Z,73.39
2017-02-08T01:31:41.282Z,73.39
2017-02-08T01:32:51.641Z,73.49
2017-02-08T01:34:02.004Z,73.58
2017-02-08T01:35:12.745Z,73.58
2017-02-08T01:36:22.988Z,73.58
2017-02-08T01:37:33.333Z,73.49
2017-02-08T01:38:43.682Z,73.39
2017-02-08T01:39:54.425Z,73.49
2017-02-08T01:41:04.376Z,73.58
2017-02-08T01:42:14.728Z,73.77
2017-02-08T01:43:25.464Z,73.68
2017-02-08T01:44:35.823Z,73.77
2017-02-08T01:45:46.560Z,73.58
2017-02-08T01:46:56.915Z,73.68
2017-02-08T01:48:07.268Z,73.58
2017-02-08T01:49:17.609Z,73.58
2017-02-08T01:50:28.337Z,73.58
2017-02-08T01:51:39.084Z,73.58
2017-02-08T01:52:49.044Z,73.58
2017-02-08T01:53:59.823Z,73.77
2017-02-08T01:55:09.822Z,73.58
2017-02-08T01:56:20.569Z,73.68
2017-02-08T01:57:30.907Z,73.58
2017-02-08T01:58:41.658Z,73.68
2017-02-08T01:59:52.391Z,73.49
2017-02-08T02:01:02.731Z,73.68
2017-02-08T02:02:12.677Z,73.77
2017-02-08T02:03:23.015Z,73.77
2017-02-08T02:04:33.350Z,73.58
2017-02-08T02:05:42.916Z,73.86
2017-02-08T02:06:52.870Z,73.39
2017-02-08T02:08:03.209Z,73.68
2017-02-08T02:09:13.159Z,73.77
2017-02-08T02:10:23.914Z,73.68
2017-02-08T02:11:34.270Z,73.3
2017-02-08T02:12:45.017Z,73.49
2017-02-08T02:13:54.973Z,73.58
2017-02-08T02:15:05.330Z,73.77
2017-02-08T02:16:15.700Z,74.33
2017-02-08T02:17:26.469Z,74.43
2017-02-08T02:18:37.218Z,74.05
2017-02-08T02:19:47.556Z,74.43
2017-02-08T02:20:57.905Z,74.15
2017-02-08T02:22:08.255Z,74.15
2017-02-08T02:23:18.607Z,74.15
2017-02-08T02:24:29.373Z,74.43
2017-02-08T02:25:39.315Z,74.05
2017-02-08T02:26:49.660Z,74.33
2017-02-08T02:28:00.011Z,74.15
2017-02-08T02:29:10.364Z,74.33
2017-02-08T02:30:21.104Z,74.33
2017-02-08T02:31:31.840Z,74.15
2017-02-08T02:32:42.631Z,74.24
2017-02-08T02:33:53.009Z,74.24
2017-02-08T02:35:02.559Z,74.15
2017-02-08T02:36:12.915Z,74.15
2017-02-08T02:37:22.872Z,74.33
2017-02-08T02:38:32.833Z,74.24
2017-02-08T02:39:43.176Z,74.24
2017-02-08T02:40:53.529Z,74.05
2017-02-08T02:42:04.280Z,74.15
2017-02-08T02:43:14.620Z,74.24
2017-02-08T02:44:25.362Z,74.24
2017-02-08T02:45:35.752Z,74.33
2017-02-08T02:46:46.482Z,74.33
2017-02-08T02:47:57.247Z,74.05
2017-02-08T02:49:07.996Z,74.05
2017-02-08T02:50:17.934Z,74.05
2017-02-08T02:51:28.679Z,74.24
2017-02-08T02:52:39.414Z,73.77
2017-02-08T02:53:49.747Z,74.62
2017-02-08T02:55:00.482Z,74.33
2017-02-08T02:56:10.031Z,73.77
2017-02-08T02:57:20.765Z,74.43
2017-02-08T02:58:31.504Z,74.43
2017-02-08T02:59:41.892Z,74.15
2017-02-08T03:00:52.638Z,74.05
2017-02-08T03:32:22.454Z,71.2
2017-02-08T03:33:33.182Z,71.95
2017-02-08T03:34:43.906Z,72.71
2017-02-08T03:35:54.643Z,74.32
2017-02-08T03:37:05.388Z,74.88
2017-02-08T03:38:15.738Z,75.17
2017-02-08T03:39:26.087Z,76.12
2017-02-08T03:40:36.425Z,76.21
2017-02-08T03:41:46.767Z,76.31
2017-02-08T03:42:57.125Z,76.4
2017-02-08T03:44:07.853Z,76.59
2017-02-08T03:45:17.808Z,76.34
2017-02-08T03:46:27.748Z,76.15
2017-02-08T03:47:38.094Z,76.25
2017-02-08T03:48:48.434Z,75.78
2017-02-08T03:49:58.789Z,75.78
2017-02-08T03:51:09.534Z,75.96
2017-02-08T03:52:19.882Z,75.34
2017-02-08T03:53:30.226Z,75.05
2017-02-08T03:54:40.975Z,75.53
2017-02-08T03:55:51.327Z,75.34
2017-02-08T03:57:01.674Z,74.87
2017-02-08T03:58:11.632Z,75.15
2017-02-08T03:59:22.374Z,75.24
2017-02-08T04:00:33.114Z,74.77
2017-02-08T04:01:43.458Z,74.68
2017-02-08T04:02:54.199Z,74.68
2017-02-08T04:04:04.157Z,74.87
2017-02-08T04:05:14.903Z,74.68
2017-02-08T04:06:25.294Z,74.77
2017-02-08T04:07:36.046Z,75.05
2017-02-08T04:08:46.786Z,74.9
2017-02-08T04:09:57.754Z,74.71
2017-02-08T04:11:08.497Z,74.68
2017-02-08T04:12:19.234Z,74.62
2017-02-08T04:13:29.968Z,74.9
2017-02-08T04:14:40.714Z,74.9
2017-02-08T04:15:51.452Z,75
2017-02-08T04:17:01.408Z,74.52
2017-02-08T04:18:12.158Z,74.52
2017-02-08T04:19:22.901Z,74.62
2017-02-08T04:20:32.854Z,74.62
2017-02-08T04:21:43.592Z,74.62
2017-02-08T04:22:54.351Z,74.81
2017-02-08T04:24:05.103Z,74.62
2017-02-08T04:25:15.846Z,74.71
2017-02-08T04:26:26.569Z,74.71
2017-02-08T04:27:37.320Z,74.71
2017-02-08T04:28:47.671Z,74.62
2017-02-08T04:29:58.425Z,74.52
2017-02-08T04:31:09.175Z,74.71
2017-02-08T04:32:19.922Z,74.71
2017-02-08T04:33:30.477Z,74.71
2017-02-08T04:34:41.207Z,74.71
2017-02-08T04:35:51.564Z,74.9
2017-02-08T04:37:01.924Z,74.81
2017-02-08T04:38:12.290Z,74.81
2017-02-08T04:39:23.032Z,74.9
2017-02-08T04:40:33.382Z,74.81
2017-02-08T04:41:43.732Z,74.05
2017-02-08T04:42:54.473Z,74.24
2017-02-08T04:44:05.238Z,74.24
2017-02-08T04:45:15.977Z,74.43
2017-02-08T04:46:26.970Z,74.24
2017-02-08T04:47:37.719Z,74.33
2017-02-08T04:48:48.453Z,74.43
2017-02-08T04:49:58.810Z,74.43
2017-02-08T04:51:09.556Z,74.33
2017-02-08T04:52:20.300Z,74.43
2017-02-08T04:53:30.650Z,74.24
2017-02-08T04:54:40.999Z,74.24
2017-02-08T04:55:51.742Z,74.15
2017-02-08T04:57:02.728Z,74.15
2017-02-08T04:58:12.688Z,74.71
2017-02-08T04:59:23.430Z,74.71
2017-02-08T05:00:34.173Z,74.33
2017-02-08T05:01:44.919Z,74.05
2017-02-08T05:02:55.660Z,74.43
2017-02-08T05:04:06.393Z,74.52
2017-02-08T05:05:16.737Z,74.05
2017-02-08T05:06:27.091Z,74.52
2017-02-08T05:07:37.447Z,74.9
2017-02-08T05:08:48.194Z,74.77
2017-02-08T05:09:58.531Z,74.58
2017-02-08T05:11:09.509Z,74.87
2017-02-08T05:12:20.250Z,74.58
2017-02-08T05:13:30.986Z,74.68
2017-02-08T05:14:41.733Z,74.68
2017-02-08T05:15:52.470Z,74.77
2017-02-08T05:17:03.208Z,74.68
2017-02-08T05:18:13.950Z,74.58
2017-02-08T05:19:24.312Z,74.58
2017-02-08T05:20:34.663Z,74.9
2017-02-08T05:21:45.399Z,74.9
2017-02-08T05:22:55.761Z,74.58
2017-02-08T05:24:06.519Z,74.11
2017-02-08T05:25:17.252Z,74.21
2017-02-08T05:26:27.997Z,74.52
2017-02-08T05:27:38.750Z,74.21
2017-02-08T05:28:49.491Z,74.21
2017-02-08T05:30:00.232Z,74.87
2017-02-08T05:31:10.973Z,74.68
2017-02-08T05:32:21.325Z,74.68
2017-02-08T05:33:32.072Z,74.87
2017-02-08T05:34:42.024Z,74.87
2017-02-08T05:35:51.972Z,74.87
2017-02-08T05:37:02.713Z,74.68
2017-02-08T05:38:12.661Z,74.68
2017-02-08T05:39:23.014Z,74.87
2017-02-08T05:40:33.366Z,74.11
2017-02-08T05:41:44.121Z,74.4
2017-02-08T05:42:54.874Z,74.68
2017-02-08T05:44:05.633Z,74.43
2017-02-08T05:45:15.988Z,74.21
2017-02-08T05:46:26.336Z,74.49
2017-02-08T05:47:37.067Z,74.11
2017-02-08T05:48:47.423Z,74.68
2017-02-08T05:49:58.160Z,74.15
2017-02-08T05:51:08.909Z,74.43
2017-02-08T05:52:19.646Z,74.05
2017-02-08T05:53:30.384Z,74.43
2017-02-08T05:54:41.150Z,74.52
2017-02-08T05:55:51.894Z,74.71
2017-02-08T05:57:02.635Z,74.52
2017-02-08T05:58:13.388Z,74.43
2017-02-08T05:59:24.136Z,74.81
2017-02-08T06:00:34.878Z,74.05
2017-02-08T06:01:45.217Z,74.43
2017-02-08T06:02:55.960Z,74.33
2017-02-08T06:04:06.305Z,74.24
2017-02-08T06:05:17.170Z,74.43
2017-02-08T06:06:27.915Z,74.52
2017-02-08T06:07:38.665Z,74.43
2017-02-08T06:08:49.398Z,74.24
2017-02-08T06:09:59.743Z,74.43
2017-02-08T06:11:09.688Z,74.15
2017-02-08T06:12:20.050Z,74.15
2017-02-08T06:13:30.783Z,74.87
2017-02-08T06:14:41.543Z,74.68
2017-02-08T06:15:51.883Z,74.87
2017-02-08T06:17:02.637Z,74.77
2017-02-08T06:18:12.985Z,74.68
2017-02-08T06:19:23.721Z,74.68
2017-02-08T06:20:34.472Z,74.68
2017-02-08T06:21:45.231Z,74.77
2017-02-08T06:22:55.979Z,74.77
2017-02-08T06:24:06.743Z,74.81
2017-02-08T06:25:17.088Z,74.62
2017-02-08T06:26:27.439Z,74.33
2017-02-08T06:27:38.385Z,74.24
2017-02-08T06:28:49.125Z,74.43
2017-02-08T06:29:59.071Z,74.43
2017-02-08T06:31:09.406Z,74.52
2017-02-08T06:32:19.752Z,74.24
2017-02-08T06:33:30.102Z,74.43
2017-02-08T06:34:40.479Z,74.43
2017-02-08T06:35:51.229Z,74.43
2017-02-08T06:37:01.969Z,74.43
2017-02-08T06:38:11.933Z,74.24
2017-02-08T06:39:22.680Z,74.24
2017-02-08T06:40:33.428Z,73.86
2017-02-08T06:41:44.170Z,73.96
2017-02-08T06:42:54.896Z,74.43
2017-02-08T06:44:05.232Z,74.43
2017-02-08T06:45:15.978Z,74.33
2017-02-08T06:46:26.325Z,74.15
2017-02-08T06:47:37.081Z,74.33
2017-02-08T06:48:47.823Z,74.24
2017-02-08T06:49:58.576Z,74.43
2017-02-08T06:51:09.325Z,73.77
2017-02-08T06:52:20.150Z,73.96
2017-02-08T06:53:30.501Z,73.58
2017-02-08T06:54:41.267Z,73.77
2017-02-08T06:55:51.622Z,73.68
2017-02-08T06:57:02.376Z,73.68
2017-02-08T06:58:12.743Z,73.58
2017-02-08T06:59:22.697Z,73.86
2017-02-08T07:00:33.049Z,73.68
2017-02-08T07:01:43.808Z,73.3
2017-02-08T07:02:54.554Z,73.77
2017-02-08T07:04:04.907Z,73.3
2017-02-08T07:05:15.646Z,73.68
2017-02-08T07:06:26.394Z,73.49
2017-02-08T07:07:37.143Z,73.68
2017-02-08T07:08:47.875Z,73.58
2017-02-08T07:09:58.667Z,73.68
2017-02-08T07:11:09.026Z,73.68
2017-02-08T07:12:19.770Z,73.39
2017-02-08T07:13:30.515Z,73.3
2017-02-08T07:14:41.277Z,73.58
2017-02-08T07:15:51.623Z,73.77
2017-02-08T07:17:02.359Z,73.68
2017-02-08T07:18:13.095Z,73.58
2017-02-08T07:19:23.858Z,73.39
2017-02-08T07:20:34.601Z,73.77
2017-02-08T07:21:45.345Z,73.49
2017-02-08T07:22:55.304Z,73.58
2017-02-08T07:24:06.059Z,73.77
2017-02-08T07:25:16.792Z,73.49
2017-02-08T07:26:27.533Z,73.49
2017-02-08T07:27:38.293Z,73.39
2017-02-08T07:28:48.652Z,73.77
2017-02-08T07:29:58.998Z,73.68
2017-02-08T07:31:09.347Z,73.71
2017-02-08T07:32:20.086Z,73.24
2017-02-08T07:33:30.433Z,73.61
2017-02-08T07:34:41.178Z,73.71
2017-02-08T07:35:51.973Z,73.58
2017-02-08T07:37:02.337Z,73.33
2017-02-08T07:38:12.690Z,72.86
2017-02-08T07:39:23.054Z,73.2
2017-02-08T07:40:33.800Z,73.24
2017-02-08T07:41:44.546Z,73.24
2017-02-08T07:42:54.897Z,73.24
2017-02-08T07:44:05.678Z,73.05
2017-02-08T07:45:16.478Z,72.57
2017-02-08T07:46:27.227Z,72.57
2017-02-08T07:47:37.957Z,72.77
2017-02-08T07:48:47.915Z,72.96
2017-02-08T07:49:58.283Z,72.29
2017-02-08T07:51:08.640Z,72.29
2017-02-08T07:52:19.390Z,72.57
2017-02-08T07:53:30.136Z,72.86
2017-02-08T07:54:40.483Z,72.19
2017-02-08T07:55:51.227Z,72.67
2017-02-08T07:57:01.967Z,72.57
2017-02-08T07:58:12.713Z,72.33
2017-02-08T07:59:23.465Z,72.61
2017-02-08T08:00:33.817Z,72.71
2017-02-08T08:01:44.564Z,72.04
2017-02-08T08:02:54.910Z,72.23
2017-02-08T08:04:05.685Z,71.76
2017-02-08T08:05:16.459Z,71.76
2017-02-08T08:06:27.226Z,71.95
2017-02-08T08:07:37.756Z,71.76
2017-02-08T08:08:48.093Z,71.51
2017-02-08T08:09:58.424Z,71.6
2017-02-08T08:11:08.769Z,71.8
2017-02-08T08:12:19.525Z,71.32
2017-02-08T08:13:30.289Z,71.7
2017-02-08T08:14:40.631Z,71.89
2017-02-08T08:15:51.382Z,71.98
2017-02-08T08:17:02.131Z,72.08
2017-02-08T08:18:12.896Z,72.74
2017-02-08T08:19:23.634Z,72.42
2017-02-08T08:20:34.399Z,72.23
2017-02-08T08:21:44.349Z,72.52
2017-02-08T08:22:54.776Z,72.04
2017-02-08T08:24:05.524Z,72.14
2017-02-08T08:25:15.889Z,72.52
2017-02-08T08:26:26.655Z,72.52
2017-02-08T08:27:37.399Z,72.33
2017-02-08T08:28:47.752Z,72.8
2017-02-08T08:29:58.489Z,73.08
2017-02-08T08:31:09.227Z,72.8
2017-02-08T08:32:19.993Z,73.08
2017-02-08T08:33:30.740Z,72.99
2017-02-08T08:34:41.084Z,72.8
2017-02-08T08:35:51.434Z,72.8
2017-02-08T08:37:02.184Z,72.89
2017-02-08T08:38:12.929Z,72.89
2017-02-08T08:39:23.688Z,72.42
2017-02-08T08:40:34.427Z,72.71
2017-02-08T08:41:45.212Z,72.61
2017-02-08T08:42:55.975Z,72.33
2017-02-08T08:44:06.326Z,72.04
2017-02-08T08:45:17.066Z,72.52
2017-02-08T08:46:27.795Z,72.8
2017-02-08T08:47:38.542Z,72.8
2017-02-08T08:48:49.275Z,72.8
2017-02-08T08:49:59.643Z,72.89
2017-02-08T08:51:10.432Z,72.52
2017-02-08T08:52:20.397Z,72.04
2017-02-08T08:53:31.137Z,72.23
2017-02-08T08:54:41.513Z,72.42
2017-02-08T08:55:52.263Z,72.42
2017-02-08T08:57:03.016Z,72.61
2017-02-08T08:58:13.755Z,72.8
2017-02-08T08:59:24.121Z,72.61
2017-02-08T09:00:34.479Z,72.04
2017-02-08T09:01:45.234Z,71.85
2017-02-08T09:02:55.592Z,72.52
2017-02-08T09:04:06.337Z,72.71
2017-02-08T09:05:17.089Z,72.42
2017-02-08T09:06:27.822Z,72.52
2017-02-08T09:07:38.558Z,72.42
2017-02-08T09:08:48.524Z,72.52
2017-02-08T09:09:59.316Z,72.52
2017-02-08T09:11:10.062Z,72.04
2017-02-08T09:12:20.806Z,72.14
2017-02-08T09:13:31.556Z,71.98
2017-02-08T09:14:41.904Z,71.89
2017-02-08T09:15:52.253Z,72.27
2017-02-08T09:17:03.023Z,71.8
2017-02-08T09:18:13.775Z,71.7
2017-02-08T09:19:24.118Z,71.98
2017-02-08T09:20:34.858Z,71.8
2017-02-08T09:21:45.638Z,71.8
2017-02-08T09:22:55.985Z,71.7
2017-02-08T09:24:06.964Z,71.7
2017-02-08T09:25:17.708Z,71.6
2017-02-08T09:26:28.459Z,71.6
2017-02-08T09:27:39.199Z,71.98
2017-02-08T09:28:49.950Z,71.7
2017-02-08T09:30:00.705Z,72.55
2017-02-08T09:31:11.453Z,72.36
2017-02-08T09:32:22.187Z,72.17
2017-02-08T09:33:32.922Z,71.7
2017-02-08T09:34:43.660Z,71.7
2017-02-08T09:35:54.015Z,71.6
2017-02-08T09:37:04.748Z,71.41
2017-02-08T09:38:15.484Z,71.41
2017-02-08T09:39:25.837Z,71.83
2017-02-08T09:40:36.594Z,71.8
2017-02-08T09:41:46.950Z,71.55
2017-02-08T09:42:57.696Z,71.64
2017-02-08T09:44:07.663Z,71.8
2017-02-08T09:45:18.399Z,72.27
2017-02-08T09:46:29.149Z,72.36
2017-02-08T09:47:39.503Z,72.17
2017-02-08T09:48:50.257Z,72.55
2017-02-08T09:50:00.615Z,72.93
2017-02-08T09:51:10.963Z,72.55
2017-02-08T09:52:21.317Z,72.93
2017-02-08T09:53:31.660Z,72.08
2017-02-08T09:54:42.459Z,72.17
2017-02-08T09:55:52.410Z,72.17
2017-02-08T09:57:03.157Z,71.7
2017-02-08T09:58:13.906Z,71.7
2017-02-08T09:59:24.645Z,71.8
2017-02-08T10:00:35.397Z,71.89
2017-02-08T10:01:45.340Z,71.98
2017-02-08T10:02:56.131Z,71.89
2017-02-08T10:04:06.878Z,71.89
2017-02-08T10:05:17.626Z,71.98
2017-02-08T10:06:27.978Z,71.89
2017-02-08T10:07:38.727Z,71.8
2017-02-08T10:08:49.478Z,71.7
2017-02-08T10:10:00.212Z,71.6
2017-02-08T10:11:10.590Z,71.8
2017-02-08T10:12:21.337Z,71.32
2017-02-08T10:13:32.090Z,71.45
2017-02-08T10:14:42.039Z,71.07
2017-02-08T10:15:52.781Z,71.73
2017-02-08T10:17:03.523Z,71.89
2017-02-08T10:18:14.284Z,72.27
2017-02-08T10:19:24.637Z,72.17
2017-02-08T10:20:35.397Z,72.55
2017-02-08T10:21:45.743Z,72.64
2017-02-08T10:22:56.497Z,72.55
2017-02-08T10:24:07.319Z,72.74
2017-02-08T10:25:18.099Z,72.74
2017-02-08T10:26:28.832Z,72.36
2017-02-08T10:27:39.582Z,72.27
2017-02-08T10:28:50.324Z,72.27
2017-02-08T10:30:01.068Z,72.27
2017-02-08T10:31:11.418Z,72.89
2017-02-08T10:32:21.800Z,72.52
2017-02-08T10:33:32.542Z,72.8
2017-02-08T10:34:43.291Z,72.99
2017-02-08T10:35:54.080Z,72.61
2017-02-08T10:37:04.859Z,72.61
2017-02-08T10:38:15.217Z,72.71
2017-02-08T10:39:25.598Z,72.04
2017-02-08T10:40:35.948Z,72.42
2017-02-08T10:41:46.308Z,72.52
2017-02-08T10:42:56.712Z,72.04
2017-02-08T10:44:07.473Z,72.36
2017-02-08T10:45:17.831Z,72.08
2017-02-08T10:46:28.179Z,71.8
2017-02-08T10:47:38.929Z,71.7
2017-02-08T10:48:49.281Z,71.8
2017-02-08T10:50:00.028Z,71.32
2017-02-08T10:51:10.378Z,71.7
2017-02-08T10:52:20.731Z,71.7
2017-02-08T10:53:31.459Z,71.8
2017-02-08T10:54:42.209Z,71.98
2017-02-08T10:55:52.980Z,71.6
2017-02-08T10:57:03.727Z,71.8
2017-02-08T10:58:14.084Z,71.7
2017-02-08T10:59:24.827Z,71.98
2017-02-08T11:00:35.175Z,72.27
2017-02-08T11:01:45.130Z,71.98
2017-02-08T11:02:55.477Z,72.55
2017-02-08T11:04:06.227Z,72.64
2017-02-08T11:05:16.982Z,72.36
2017-02-08T11:06:27.726Z,72.55
2017-02-08T11:07:38.080Z,72.36
2017-02-08T11:08:48.824Z,72.45
2017-02-08T11:09:59.576Z,72.55
2017-02-08T11:11:10.331Z,72.55
2017-02-08T11:12:21.082Z,72.36
2017-02-08T11:13:31.070Z,73.03
2017-02-08T11:14:41.836Z,72.52
2017-02-08T11:15:52.585Z,72.71
2017-02-08T11:17:03.339Z,72.8
2017-02-08T11:18:14.105Z,72.71
2017-02-08T11:19:23.661Z,72.33
2017-02-08T11:20:34.417Z,72.71
2017-02-08T11:21:44.766Z,72.8
2017-02-08T11:22:55.156Z,72.8
2017-02-08T11:24:05.935Z,72.99
2017-02-08T11:25:16.952Z,72.8
2017-02-08T11:26:27.705Z,72.99
2017-02-08T11:27:38.064Z,72.61
2017-02-08T11:28:48.825Z,72.8
2017-02-08T11:29:59.167Z,72.52
2017-02-08T11:31:09.930Z,72.8
2017-02-08T11:32:20.671Z,72.99
2017-02-08T11:33:31.017Z,72.89
2017-02-08T11:34:41.763Z,72.8
2017-02-08T11:35:52.519Z,72.23
2017-02-08T11:37:03.266Z,72.04
2017-02-08T11:38:13.625Z,72.33
2017-02-08T11:39:24.383Z,72.52
2017-02-08T11:40:34.717Z,72.42
2017-02-08T11:41:45.311Z,72.61
2017-02-08T11:42:56.050Z,72.71
2017-02-08T11:44:06.395Z,72.71
2017-02-08T11:45:17.143Z,72.8
2017-02-08T11:46:27.884Z,72.52
2017-02-08T11:47:38.624Z,72.42
2017-02-08T11:48:49.379Z,72.42
2017-02-08T11:50:00.127Z,72.52
2017-02-08T11:51:10.503Z,72.14
2017-02-08T11:52:20.858Z,72.23
2017-02-08T11:53:30.823Z,72.33
2017-02-08T11:54:41.552Z,72.42
2017-02-08T11:55:51.901Z,72.42
2017-02-08T11:57:02.639Z,72.61
2017-02-08T11:58:13.599Z,72.61
2017-02-08T11:59:24.354Z,72.61
2017-02-08T12:00:35.099Z,72.61
2017-02-08T12:01:45.460Z,72.42
2017-02-08T12:02:56.189Z,72.42
2017-02-08T12:04:06.544Z,72.71
2017-02-08T12:05:17.303Z,72.71
2017-02-08T12:06:28.054Z,72.52
2017-02-08T12:07:38.798Z,72.61
2017-02-08T12:08:49.548Z,72.61
2017-02-08T12:10:00.284Z,72.71
2017-02-08T12:11:10.232Z,72.52
2017-02-08T12:12:20.597Z,72.08
2017-02-08T12:13:31.360Z,72.08
2017-02-08T12:14:42.111Z,72.08
2017-02-08T12:15:52.851Z,72.08
2017-02-08T12:17:03.214Z,71.98
2017-02-08T12:18:13.977Z,71.98
2017-02-08T12:19:24.712Z,72.17
2017-02-08T12:20:34.652Z,72.17
2017-02-08T12:21:45.861Z,71.98
2017-02-08T12:22:56.620Z,72.08
2017-02-08T12:24:07.375Z,72.08
2017-02-08T12:25:18.383Z,71.89
2017-02-08T12:26:29.129Z,71.8
2017-02-08T12:27:39.872Z,71.98
2017-02-08T12:28:50.621Z,71.8
2017-02-08T12:30:00.962Z,72.08
2017-02-08T12:31:10.925Z,72.08
2017-02-08T12:32:21.268Z,71.98
2017-02-08T12:33:31.611Z,71.8
2017-02-08T12:34:41.960Z,71.98
2017-02-08T12:35:52.317Z,71.8
2017-02-08T12:37:03.069Z,71.89
2017-02-08T12:38:13.853Z,72.27
2017-02-08T12:39:24.232Z,72.27
2017-02-08T12:40:34.975Z,72.17
2017-02-08T12:41:45.742Z,72.08
2017-02-08T12:42:56.497Z,72.27
2017-02-08T12:44:07.258Z,72.27
2017-02-08T12:45:18.007Z,71.8
2017-02-08T12:46:27.955Z,71.41
2017-02-08T12:47:38.680Z,71.36
2017-02-08T12:48:48.654Z,70.98
2017-02-08T12:49:59.394Z,70.69
2017-02-08T12:51:10.138Z,70.88
2017-02-08T12:52:20.491Z,71.26
2017-02-08T12:53:30.438Z,71.83
2017-02-08T12:54:40.793Z,71.64
2017-02-08T12:55:51.569Z,71.64
2017-02-08T12:57:02.323Z,71.83
2017-02-08T12:58:13.069Z,72.3
2017-02-08T12:59:23.809Z,71.98
2017-02-08T13:00:34.564Z,72.84
2017-02-08T13:01:44.935Z,72.55
2017-02-08T13:02:55.290Z,72.45
2017-02-08T13:04:06.044Z,72.55
2017-02-08T13:05:16.778Z,72.55
2017-02-08T13:06:27.122Z,72.27
2017-02-08T13:07:37.470Z,72.08
2017-02-08T13:08:47.837Z,71.89
2017-02-08T13:09:58.583Z,72.36
2017-02-08T13:11:08.936Z,72.42
2017-02-08T13:12:19.347Z,72.89
2017-02-08T13:13:30.094Z,72.8
2017-02-08T13:14:40.859Z,72.52
2017-02-08T13:15:51.612Z,73.37
2017-02-08T13:17:02.363Z,73.08
2017-02-08T13:18:13.108Z,73.37
2017-02-08T13:19:23.865Z,72.71
2017-02-08T13:20:34.614Z,72.61
2017-02-08T13:21:45.359Z,72.89
2017-02-08T13:22:55.704Z,72.99
2017-02-08T13:24:06.211Z,72.71
2017-02-08T13:25:16.585Z,72.8
2017-02-08T13:26:27.349Z,72.71
2017-02-08T13:27:38.108Z,72.52
2017-02-08T13:28:48.855Z,72.61
2017-02-08T13:29:59.601Z,73.37
2017-02-08T13:31:09.949Z,73.18
2017-02-08T13:32:20.714Z,72.96
2017-02-08T13:33:31.461Z,73.43
2017-02-08T13:34:41.414Z,73.33
2017-02-08T13:35:52.160Z,73.71
2017-02-08T13:37:02.897Z,73.43
2017-02-08T13:38:13.663Z,73.33
2017-02-08T13:39:23.618Z,73.71
2017-02-08T13:40:34.387Z,73.61
2017-02-08T13:41:44.740Z,73.61
2017-02-08T13:42:55.484Z,73.05
2017-02-08T13:44:06.461Z,73.24
2017-02-08T13:45:17.195Z,73.05
2017-02-08T13:46:27.551Z,72.86
2017-02-08T13:47:38.289Z,72.57
2017-02-08T13:48:49.281Z,72.57
2017-02-08T13:50:00.014Z,72.67
2017-02-08T13:51:10.358Z,72.48
2017-02-08T13:52:20.727Z,72.86
2017-02-08T13:53:31.471Z,72.77
2017-02-08T13:54:41.655Z,72.57
2017-02-08T13:55:52.397Z,72.67
2017-02-08T13:57:03.284Z,72.57
2017-02-08T13:58:14.026Z,72.86
2017-02-08T13:59:24.389Z,72.48
2017-02-08T14:00:35.137Z,72.67
2017-02-08T14:01:45.477Z,72.67
2017-02-08T14:02:55.821Z,72.96
2017-02-08T14:04:06.176Z,72.77
2017-02-08T14:05:16.923Z,72.86
2017-02-08T14:06:27.679Z,72.67
2017-02-08T14:07:38.434Z,72.67
2017-02-08T14:08:48.782Z,72.57
2017-02-08T14:09:59.160Z,72.57
2017-02-08T14:11:09.913Z,72.48
2017-02-08T14:12:20.658Z,72.57
2017-02-08T14:13:31.442Z,72.86
2017-02-08T14:14:42.203Z,72.48
2017-02-08T14:15:52.950Z,72.67
2017-02-08T14:17:03.705Z,73.14
2017-02-08T14:18:13.660Z,72.96
2017-02-08T14:19:24.443Z,73.05
2017-02-08T14:20:35.200Z,73.3
2017-02-08T14:21:45.953Z,73.49
2017-02-08T14:22:56.295Z,73.68
2017-02-08T14:24:07.044Z,73.68
2017-02-08T14:25:17.794Z,73.68
2017-02-08T14:26:28.160Z,73.3
2017-02-08T14:27:38.520Z,73.49
2017-02-08T14:28:49.276Z,73.39
2017-02-08T14:30:00.023Z,73.3
2017-02-08T14:31:09.978Z,73.01
2017-02-08T14:34:20.359Z,73.77
2017-02-08T14:41:46.969Z,73.77
2017-02-08T14:42:54.830Z,73.58
2017-02-08T14:44:05.201Z,73.58
2017-02-08T14:45:15.943Z,73.77
2017-02-08T14:46:26.707Z,73.68
2017-02-08T14:47:37.455Z,73.68
2017-02-08T14:48:48.199Z,73.39
2017-02-08T14:49:58.950Z,73.2
2017-02-08T14:51:08.904Z,73.39
2017-02-08T14:52:19.662Z,73.68
2017-02-08T14:53:30.020Z,73.68
2017-02-08T14:54:40.771Z,73.49
2017-02-08T14:55:51.532Z,73.68
2017-02-08T14:57:02.278Z,73.54
2017-02-08T14:58:13.031Z,73.58
2017-02-08T14:59:23.762Z,73.58
2017-02-08T15:00:34.121Z,73.58
2017-02-08T15:01:44.860Z,73.49
2017-02-08T15:02:55.612Z,73.68
2017-02-08T15:04:05.969Z,73.68
2017-02-08T15:05:16.330Z,73.3
2017-02-08T15:06:26.687Z,73.68
2017-02-08T15:07:37.434Z,73.11
2017-02-08T15:08:47.799Z,73.2
2017-02-08T15:09:58.546Z,73.49
2017-02-08T15:11:09.289Z,73.3
2017-02-08T15:12:20.044Z,73.58
2017-02-08T15:13:30.785Z,73.3
2017-02-08T15:14:41.140Z,73.49
2017-02-08T15:15:51.500Z,73.3
2017-02-08T15:17:02.248Z,73.2
2017-02-08T15:18:12.628Z,73.49
2017-02-08T15:19:23.368Z,73.68
2017-02-08T15:20:34.132Z,73.49
2017-02-08T15:21:44.485Z,73.2
2017-02-08T15:22:55.253Z,73.3
2017-02-08T15:24:06.008Z,73.54
2017-02-08T15:25:16.402Z,73.68
2017-02-08T15:26:27.163Z,73.77
2017-02-08T15:27:37.913Z,73.54
2017-02-08T15:28:48.275Z,73.64
2017-02-08T15:29:59.047Z,73.54
2017-02-08T15:31:09.395Z,73.64
2017-02-08T15:32:20.196Z,73.35
2017-02-08T15:33:30.945Z,73.64
2017-02-08T15:34:41.691Z,73.54
2017-02-08T15:35:52.437Z,73.64
2017-02-08T15:37:02.412Z,73.64
2017-02-08T15:38:12.779Z,73.26
2017-02-08T15:39:23.150Z,73.54
2017-02-08T15:40:33.887Z,73.83
2017-02-08T15:41:44.635Z,73.49
2017-02-08T15:42:55.387Z,73.39
2017-02-08T15:44:06.145Z,73.64
2017-02-08T15:45:16.882Z,73.77
2017-02-08T15:46:27.632Z,73.2
2017-02-08T15:47:38.372Z,73.49
2017-02-08T15:48:48.334Z,73.49
2017-02-08T15:49:59.374Z,73.39
2017-02-08T15:51:10.145Z,73.39